createdAt,value
2023-04-25T00:01:41.251Z,11.80
2023-04-25T00:04:11.023Z,11.90
2023-04-25T00:06:41.516Z,11.80
2023-04-25T00:09:12.294Z,11.80
2023-04-25T00:11:43.259Z,11.80
2023-04-25T00:14:14.088Z,11.90
2023-04-25T00:16:45.316Z,11.80
2023-04-25T00:19:14.892Z,11.80
2023-04-25T00:21:47.553Z,11.90
2023-04-25T00:24:16.910Z,11.80
2023-04-25T00:26:47.262Z,11.80
2023-04-25T00:29:18.164Z,11.70
2023-04-25T00:31:47.970Z,11.80
2023-04-25T00:34:17.322Z,11.70
2023-04-25T00:36:46.987Z,11.70
2023-04-25T00:39:16.342Z,11.80
2023-04-25T00:41:47.794Z,11.70
2023-04-25T00:44:19.621Z,11.70
2023-04-25T00:46:51.106Z,11.80
2023-04-25T00:49:20.473Z,11.80
2023-04-25T00:51:50.672Z,11.70
2023-04-25T00:54:20.071Z,11.80
2023-04-25T00:56:50.668Z,11.70
2023-04-25T00:59:22.167Z,11.70
2023-04-25T01:01:52.214Z,11.60
2023-04-25T01:04:21.926Z,11.60
2023-04-25T01:06:52.368Z,11.60
2023-04-25T01:09:22.274Z,11.60
2023-04-25T01:11:52.426Z,11.60
2023-04-25T01:14:23.342Z,11.60
2023-04-25T01:16:54.383Z,11.60
2023-04-25T01:19:23.900Z,11.60
2023-04-25T01:21:55.304Z,11.50
2023-04-25T01:24:25.220Z,11.40
2023-04-25T01:26:57.631Z,11.40
2023-04-25T01:29:27.258Z,11.40
2023-04-25T01:31:57.925Z,11.40
2023-04-25T01:34:27.690Z,11.40
2023-04-25T01:36:58.838Z,11.40
2023-04-25T01:39:27.953Z,11.40
2023-04-25T01:41:57.753Z,11.30
2023-04-25T01:44:27.169Z,11.30
2023-04-25T01:46:57.410Z,11.30
2023-04-25T01:49:27.432Z,11.20
2023-04-25T01:51:58.643Z,11.30
2023-04-25T01:54:27.665Z,11.30
2023-04-25T01:57:00.316Z,11.30
2023-04-25T01:59:30.208Z,11.20
2023-04-25T02:02:00.034Z,11.20
2023-04-25T02:04:29.422Z,11.20
2023-04-25T02:07:00.662Z,11.20
2023-04-25T02:09:30.020Z,11.20
2023-04-25T02:12:01.080Z,11.20
2023-04-25T02:14:30.402Z,11.30
2023-04-25T02:17:00.338Z,11.30
2023-04-25T02:19:29.893Z,11.30
2023-04-25T02:22:01.061Z,11.30
2023-04-25T02:24:30.350Z,11.30
2023-04-25T02:27:00.042Z,11.30
2023-04-25T02:29:29.500Z,11.30
2023-04-25T02:31:59.255Z,11.30
2023-04-25T02:34:28.690Z,11.20
2023-04-25T02:37:00.344Z,11.20
2023-04-25T02:39:29.587Z,11.20
2023-04-25T02:42:18.997Z,11.20
2023-04-25T02:44:48.556Z,11.20
2023-04-25T02:47:18.401Z,11.10
2023-04-25T02:49:48.544Z,11.10
2023-04-25T02:52:19.648Z,11.10
2023-04-25T02:54:49.034Z,11.10
2023-04-25T02:57:19.103Z,11.10
2023-04-25T02:59:48.567Z,11.10
2023-04-25T03:02:18.517Z,11.10
2023-04-25T03:04:48.098Z,11.10
2023-04-25T03:07:19.328Z,11.10
2023-04-25T03:09:48.916Z,11.10
2023-04-25T03:12:18.852Z,11.10
2023-04-25T03:14:48.632Z,11.20
2023-04-25T03:17:18.821Z,11.10
2023-04-25T03:19:48.552Z,11.20
2023-04-25T03:22:20.096Z,11.20
2023-04-25T03:24:49.549Z,11.20
2023-04-25T03:27:19.505Z,11.10
2023-04-25T03:29:48.831Z,11.10
2023-04-25T03:32:19.179Z,11.20
2023-04-25T03:34:48.519Z,11.10
2023-04-25T03:37:19.861Z,11.10
2023-04-25T03:39:48.714Z,11.20
2023-04-25T03:42:18.873Z,11.20
2023-04-25T03:44:48.305Z,11.20
2023-04-25T03:47:18.319Z,11.10
2023-04-25T03:49:47.997Z,10.70
2023-04-25T03:52:19.150Z,10.50
2023-04-25T03:54:48.645Z,10.40
2023-04-25T03:57:18.423Z,10.20
2023-04-25T03:59:47.837Z,10.10
2023-04-25T04:02:17.661Z,9.90
2023-04-25T04:04:47.446Z,9.80
2023-04-25T04:07:18.818Z,9.60
2023-04-25T04:09:48.067Z,9.50
2023-04-25T04:12:17.768Z,9.40
2023-04-25T04:14:47.550Z,9.40
2023-04-25T04:17:17.297Z,9.30
2023-04-25T04:19:46.550Z,9.30
2023-04-25T04:22:16.350Z,9.30
2023-04-25T04:24:49.292Z,9.30
2023-04-25T04:27:20.419Z,9.30
2023-04-25T04:29:50.171Z,9.20
2023-04-25T04:32:20.211Z,9.20
2023-04-25T04:34:50.195Z,9.20
2023-04-25T04:37:20.277Z,9.20
2023-04-25T04:39:51.543Z,9.10
2023-04-25T04:42:22.490Z,9.10
2023-04-25T04:44:53.533Z,9.20
2023-04-25T04:47:25.003Z,9.20
2023-04-25T04:49:54.294Z,9.10
2023-04-25T04:52:24.376Z,9.10
2023-04-25T04:54:55.221Z,9.20
2023-04-25T04:57:24.874Z,9.10
2023-04-25T04:59:54.748Z,9.10
2023-04-25T05:02:24.577Z,9.00
2023-04-25T05:04:54.167Z,9.10
2023-04-25T05:07:23.939Z,9.10
2023-04-25T05:09:54.833Z,9.10
2023-04-25T05:12:24.401Z,9.20
2023-04-25T05:14:53.830Z,9.10
2023-04-25T05:17:23.711Z,9.20
2023-04-25T05:19:53.044Z,9.20
2023-04-25T05:22:22.685Z,9.10
2023-04-25T05:24:55.199Z,9.10
2023-04-25T05:27:27.220Z,9.10
2023-04-25T05:29:56.535Z,9.10
2023-04-25T05:32:27.502Z,9.00
2023-04-25T05:34:57.119Z,9.10
2023-04-25T05:37:27.468Z,9.00
2023-04-25T05:39:56.796Z,9.00
2023-04-25T05:42:28.002Z,9.10
2023-04-25T05:44:57.505Z,9.00
2023-04-25T05:47:27.204Z,8.90
2023-04-25T05:49:56.621Z,8.90
2023-04-25T05:52:26.781Z,8.90
2023-04-25T05:54:56.365Z,8.90
2023-04-25T05:57:29.558Z,8.80
2023-04-25T05:59:58.949Z,8.80
2023-04-25T06:02:28.973Z,8.80
2023-04-25T06:04:59.168Z,8.90
2023-04-25T06:07:28.974Z,8.90
2023-04-25T06:09:58.227Z,8.80
2023-04-25T06:12:29.804Z,8.80
2023-04-25T06:14:59.040Z,8.80
2023-04-25T06:17:28.917Z,8.80
2023-04-25T06:19:58.900Z,8.60
2023-04-25T06:22:29.016Z,8.70
2023-04-25T06:25:00.272Z,8.70
2023-04-25T06:27:31.583Z,8.70
2023-04-25T06:30:01.102Z,8.70
2023-04-25T06:32:31.444Z,8.60
2023-04-25T06:35:01.162Z,8.60
2023-04-25T06:37:31.643Z,8.60
2023-04-25T06:40:00.868Z,8.70
2023-04-25T06:42:31.934Z,8.70
2023-04-25T06:45:01.240Z,8.70
2023-04-25T06:47:31.796Z,8.70
2023-04-25T06:50:01.184Z,8.80
2023-04-25T06:52:31.165Z,8.90
2023-04-25T06:55:00.664Z,9.10
2023-04-25T06:57:31.950Z,9.10
2023-04-25T07:00:02.423Z,9.10
2023-04-25T07:02:32.542Z,9.30
2023-04-25T07:05:01.953Z,9.30
2023-04-25T07:07:31.758Z,9.40
2023-04-25T07:10:01.069Z,9.40
2023-04-25T07:12:32.369Z,9.40
2023-04-25T07:15:07.230Z,9.50
2023-04-25T07:17:37.074Z,9.60
2023-04-25T07:20:09.043Z,9.50
2023-04-25T07:22:39.185Z,9.50
2023-04-25T07:25:09.884Z,9.40
2023-04-25T07:27:41.220Z,9.30
2023-04-25T07:30:11.800Z,9.30
2023-04-25T07:32:41.401Z,9.40
2023-04-25T07:35:11.648Z,9.20
2023-04-25T07:37:41.315Z,9.20
2023-04-25T07:40:12.394Z,9.20
2023-04-25T07:42:43.620Z,9.10
2023-04-25T07:45:12.993Z,9.20
2023-04-25T07:47:42.944Z,9.30
2023-04-25T07:50:12.893Z,9.40
2023-04-25T07:52:42.704Z,9.50
2023-04-25T07:55:12.660Z,9.60
2023-04-25T07:57:43.424Z,9.70
2023-04-25T08:00:14.454Z,9.80
2023-04-25T08:02:43.920Z,9.90
2023-04-25T08:05:16.346Z,9.90
2023-04-25T08:07:46.664Z,9.90
2023-04-25T08:10:16.865Z,9.90
2023-04-25T08:12:47.587Z,10.00
2023-04-25T08:15:17.314Z,10.00
2023-04-25T08:17:46.760Z,10.10
2023-04-25T08:20:16.474Z,10.20
2023-04-25T08:22:45.873Z,10.40
2023-04-25T08:25:15.797Z,10.50
2023-04-25T08:27:46.592Z,10.70
2023-04-25T08:30:17.234Z,10.60
2023-04-25T08:32:46.566Z,10.80
2023-04-25T08:35:17.794Z,11.00
2023-04-25T08:37:47.107Z,11.00
2023-04-25T08:40:18.473Z,10.90
2023-04-25T08:42:51.575Z,11.00
2023-04-25T08:45:22.280Z,11.10
2023-04-25T08:47:55.212Z,11.00
2023-04-25T08:50:27.572Z,11.10
2023-04-25T08:52:59.875Z,11.10
2023-04-25T08:55:30.460Z,11.20
2023-04-25T08:58:02.009Z,11.20
2023-04-25T09:00:31.797Z,11.30
2023-04-25T09:03:02.114Z,11.30
2023-04-25T09:05:32.543Z,11.20
2023-04-25T09:08:02.726Z,11.20
2023-04-25T09:13:11.996Z,11.30
2023-04-25T09:15:52.695Z,11.40
2023-04-25T09:18:30.968Z,11.50
2023-04-25T09:21:13.704Z,11.50
2023-04-25T09:23:46.506Z,11.30
2023-04-25T09:26:18.166Z,11.20
2023-04-25T09:28:49.557Z,11.10
2023-04-25T09:31:25.893Z,10.90
2023-04-25T09:34:03.250Z,10.60
2023-04-25T09:36:33.975Z,10.60
2023-04-25T09:39:04.999Z,10.60
2023-04-25T09:41:39.904Z,10.50
2023-04-25T09:44:10.824Z,10.50
2023-04-25T09:46:41.038Z,10.50
2023-04-25T09:49:10.789Z,10.50
2023-04-25T09:51:40.952Z,10.50
2023-04-25T09:54:10.462Z,10.50
2023-04-25T09:56:40.614Z,10.50
2023-04-25T09:59:13.052Z,10.70
2023-04-25T10:01:45.938Z,10.90
2023-04-25T10:04:17.268Z,11.00
2023-04-25T10:06:48.502Z,11.00
2023-04-25T10:09:19.893Z,11.20
2023-04-25T10:11:50.464Z,11.30
2023-04-25T10:14:21.897Z,11.40
2023-04-25T10:16:55.062Z,11.40
2023-04-25T10:19:24.783Z,11.60
2023-04-25T10:21:58.233Z,11.60
2023-04-25T10:24:28.624Z,11.70
2023-04-25T10:26:58.956Z,11.80
2023-04-25T10:29:29.959Z,11.70
2023-04-25T10:32:00.331Z,11.40
2023-04-25T10:34:42.839Z,11.30
2023-04-25T10:37:13.075Z,11.20
2023-04-25T10:39:44.232Z,11.00
2023-04-25T10:42:14.797Z,11.00
2023-04-25T10:45:05.535Z,11.00
2023-04-25T10:47:38.908Z,11.10
2023-04-25T10:50:10.373Z,11.10
2023-04-25T10:52:42.464Z,11.10
2023-04-25T10:55:12.060Z,11.20
2023-04-25T10:57:43.583Z,11.10
2023-04-25T11:00:25.882Z,11.20
2023-04-25T11:03:02.325Z,11.30
2023-04-25T11:05:41.072Z,11.20
2023-04-25T11:08:23.750Z,11.10
2023-04-25T11:10:53.939Z,11.20
2023-04-25T11:13:23.647Z,11.30
2023-04-25T11:16:07.087Z,11.30
2023-04-25T11:18:44.670Z,11.30
2023-04-25T11:21:14.317Z,11.30
2023-04-25T11:23:47.332Z,11.30
2023-04-25T11:26:17.783Z,11.30
2023-04-25T11:28:48.367Z,11.30
2023-04-25T11:31:23.741Z,11.40
2023-04-25T11:33:53.515Z,11.30
2023-04-25T11:36:27.542Z,11.20
2023-04-25T11:38:57.207Z,11.30
2023-04-25T11:41:28.799Z,11.40
2023-04-25T11:43:58.656Z,11.50
2023-04-25T11:46:30.006Z,11.60
2023-04-25T11:49:00.515Z,11.70
2023-04-25T11:51:29.777Z,11.70
2023-04-25T11:53:59.548Z,11.80
2023-04-25T11:56:29.322Z,11.80
2023-04-25T11:59:00.663Z,11.70
2023-04-25T12:01:35.479Z,11.60
2023-04-25T12:04:17.093Z,11.50
2023-04-25T12:06:49.453Z,11.40
2023-04-25T12:09:20.741Z,11.30
2023-04-25T12:11:50.271Z,11.30
2023-04-25T12:14:30.907Z,11.30
2023-04-25T12:17:03.197Z,11.50
2023-04-25T12:19:36.361Z,11.40
2023-04-25T12:22:06.854Z,11.40
2023-04-25T12:24:39.283Z,11.40
2023-04-25T12:27:10.490Z,11.50
2023-04-25T12:29:49.395Z,11.60
2023-04-25T12:32:20.729Z,11.70
2023-04-25T12:34:50.400Z,11.70
2023-04-25T12:37:19.686Z,11.60
2023-04-25T12:39:49.501Z,11.60
2023-04-25T12:42:18.816Z,11.60
2023-04-25T12:44:48.939Z,11.50
2023-04-25T12:47:19.847Z,11.40
2023-04-25T12:49:50.038Z,11.30
2023-04-25T12:52:19.291Z,11.20
2023-04-25T12:54:48.936Z,11.10
2023-04-25T12:57:18.590Z,11.20
2023-04-25T12:59:48.541Z,11.20
2023-04-25T13:02:18.203Z,11.10
2023-04-25T13:04:49.999Z,11.10
2023-04-25T13:07:19.215Z,11.10
2023-04-25T13:09:48.947Z,11.20
2023-04-25T13:12:18.469Z,11.40
2023-04-25T13:14:48.315Z,11.50
2023-04-25T13:17:17.574Z,11.60
2023-04-25T13:19:48.809Z,11.80
2023-04-25T13:22:18.273Z,12.00
2023-04-25T13:24:48.247Z,12.20
2023-04-25T13:27:17.559Z,12.20
2023-04-25T13:29:47.675Z,12.20
2023-04-25T13:32:17.112Z,12.20
2023-04-25T13:34:49.007Z,12.10
2023-04-25T13:37:18.233Z,12.00
2023-04-25T13:39:48.335Z,12.10
2023-04-25T13:42:18.510Z,11.90
2023-04-25T13:44:48.104Z,12.00
2023-04-25T13:47:17.567Z,11.90
2023-04-25T13:49:48.799Z,11.90
2023-04-25T13:52:17.686Z,11.90
2023-04-25T13:54:47.522Z,11.90
2023-04-25T13:57:17.373Z,12.00
2023-04-25T13:59:47.317Z,12.10
2023-04-25T14:02:16.738Z,12.10
2023-04-25T14:04:46.526Z,12.10
2023-04-25T14:07:19.251Z,12.10
2023-04-25T14:09:48.891Z,12.10
2023-04-25T14:12:20.426Z,12.10
2023-04-25T14:14:50.437Z,12.00
2023-04-25T14:17:19.663Z,12.00
2023-04-25T14:19:49.452Z,12.20
2023-04-25T14:22:20.780Z,12.00
2023-04-25T14:24:50.960Z,12.00
2023-04-25T14:27:20.366Z,11.90
2023-04-25T14:29:50.366Z,11.90
2023-04-25T14:32:19.777Z,11.80
2023-04-25T14:34:49.416Z,11.20
2023-04-25T14:37:20.300Z,10.60
2023-04-25T14:39:49.895Z,10.20
2023-04-25T14:42:19.405Z,10.10
2023-04-25T14:44:49.193Z,10.00
2023-04-25T14:47:18.983Z,10.00
2023-04-25T14:49:55.284Z,9.90
2023-04-25T14:52:26.840Z,9.80
2023-04-25T14:54:56.756Z,9.70
2023-04-25T14:57:26.321Z,9.60
2023-04-25T14:59:56.103Z,9.60
2023-04-25T15:02:26.360Z,9.50
2023-04-25T15:04:57.421Z,9.50
2023-04-25T15:07:28.259Z,9.40
2023-04-25T15:09:58.111Z,9.30
2023-04-25T15:12:29.570Z,9.40
2023-04-25T15:14:59.592Z,9.30
2023-04-25T15:17:32.306Z,9.30
2023-04-25T15:20:02.359Z,9.20
2023-04-25T15:22:33.358Z,9.20
2023-04-25T15:25:02.999Z,9.10
2023-04-25T15:27:32.863Z,9.10
2023-04-25T15:30:03.680Z,9.10
2023-04-25T15:32:33.348Z,9.10
2023-04-25T15:35:08.779Z,9.00
2023-04-25T15:37:40.059Z,9.10
2023-04-25T15:40:12.412Z,9.00
2023-04-25T15:42:43.478Z,9.00
2023-04-25T15:45:14.915Z,8.90
2023-04-25T15:47:44.174Z,8.90
2023-04-25T15:50:15.121Z,8.90
2023-04-25T15:52:46.564Z,8.90
2023-04-25T15:55:17.763Z,8.90
2023-04-25T15:57:48.088Z,8.90
2023-04-25T16:00:19.643Z,8.80
2023-04-25T16:02:49.849Z,8.80
2023-04-25T16:05:20.022Z,8.70
2023-04-25T16:07:54.046Z,8.80
2023-04-25T16:10:24.162Z,8.80
2023-04-25T16:12:53.958Z,8.80
2023-04-25T16:15:23.641Z,8.70
2023-04-25T16:17:53.032Z,8.70
2023-04-25T16:20:22.929Z,8.70
2023-04-25T16:22:53.728Z,8.70
2023-04-25T16:25:24.124Z,8.60
2023-04-25T16:27:53.623Z,8.70
2023-04-25T16:30:23.716Z,8.70
2023-04-25T16:32:53.035Z,8.60
2023-04-25T16:35:23.763Z,8.60
2023-04-25T16:37:54.765Z,8.60
2023-04-25T16:40:24.408Z,8.60
2023-04-25T16:42:53.631Z,8.60
2023-04-25T16:45:24.721Z,8.60
2023-04-25T16:47:54.080Z,8.60
2023-04-25T16:50:24.038Z,8.60
2023-04-25T16:52:55.140Z,8.60
2023-04-25T16:55:24.852Z,8.60
2023-04-25T16:57:54.432Z,8.50
2023-04-25T17:00:25.482Z,8.60
2023-04-25T17:02:55.524Z,8.60
2023-04-25T17:05:26.729Z,8.60
2023-04-25T17:07:58.313Z,8.60
2023-04-25T17:10:28.580Z,8.60
2023-04-25T17:12:57.899Z,8.60
2023-04-25T17:15:27.777Z,8.60
2023-04-25T17:17:57.627Z,8.60
2023-04-25T17:20:27.478Z,8.50
2023-04-25T17:22:58.716Z,8.60
2023-04-25T17:25:28.630Z,8.60
2023-04-25T17:27:58.022Z,8.60
2023-04-25T17:30:28.462Z,8.50
2023-04-25T17:32:57.919Z,8.60
2023-04-25T17:35:28.428Z,8.60
2023-04-25T17:37:59.693Z,8.50
2023-04-25T17:40:29.531Z,8.50
2023-04-25T17:42:59.462Z,8.50
2023-04-25T17:45:34.901Z,8.50
2023-04-25T17:48:04.753Z,8.50
2023-04-25T17:50:34.796Z,8.50
2023-04-25T17:53:05.938Z,8.50
2023-04-25T17:55:35.661Z,8.50
2023-04-25T17:58:05.204Z,8.50
2023-04-25T18:00:35.496Z,8.50
2023-04-25T18:03:05.207Z,8.60
2023-04-25T18:05:36.116Z,8.60
2023-04-25T18:08:07.377Z,8.60
2023-04-25T18:10:37.502Z,8.50
2023-04-25T18:13:09.443Z,8.50
2023-04-25T18:15:39.675Z,8.50
2023-04-25T18:18:15.556Z,8.50
2023-04-25T18:20:46.995Z,8.50
2023-04-25T18:23:18.078Z,8.50
2023-04-25T18:25:52.130Z,8.40
2023-04-25T18:28:22.448Z,8.40
2023-04-25T18:30:52.202Z,8.30
2023-04-25T18:33:22.361Z,8.20
2023-04-25T18:38:35.477Z,8.10
2023-04-25T18:41:33.757Z,8.10
2023-04-25T18:43:58.783Z,8.10
2023-04-25T18:46:29.524Z,8.00
2023-04-25T18:48:58.937Z,8.00
2023-04-25T18:51:29.633Z,8.00
2023-04-25T18:54:01.292Z,7.90
2023-04-25T18:56:31.060Z,7.90
2023-04-25T18:59:00.811Z,7.80
2023-04-25T19:01:30.881Z,7.80
2023-04-25T19:04:01.667Z,7.70
2023-04-25T19:06:33.119Z,7.70
2023-04-25T19:09:04.078Z,7.70
2023-04-25T19:11:33.921Z,7.70
2023-04-25T19:14:03.815Z,7.60
2023-04-25T19:16:39.272Z,7.60
2023-04-25T19:19:10.191Z,7.60
2023-04-25T19:21:39.790Z,7.60
2023-04-25T19:24:11.549Z,7.60
2023-04-25T19:26:41.742Z,7.50
2023-04-25T19:29:12.462Z,7.50
2023-04-25T19:31:43.240Z,7.50
2023-04-25T19:34:13.240Z,7.50
2023-04-25T19:36:44.389Z,7.50
2023-04-25T19:39:15.157Z,7.40
2023-04-25T19:41:45.722Z,7.30
2023-04-25T19:44:15.270Z,7.30
2023-04-25T19:46:46.922Z,7.30
2023-04-25T19:49:16.608Z,7.30
2023-04-25T19:51:47.083Z,7.30
2023-04-25T19:54:18.203Z,7.20
2023-04-25T19:56:49.028Z,7.20
2023-04-25T19:59:18.317Z,7.20
2023-04-25T20:01:48.149Z,7.10
2023-04-25T20:04:18.535Z,7.10
2023-04-25T20:06:48.289Z,7.10
2023-04-25T20:09:21.128Z,7.10
2023-04-25T20:11:51.319Z,7.10
2023-04-25T20:14:20.589Z,7.10
2023-04-25T20:16:50.465Z,7.00
2023-04-25T20:19:20.452Z,7.00
2023-04-25T20:21:50.123Z,7.00
2023-04-25T20:24:21.119Z,7.00
2023-04-25T20:26:50.981Z,7.10
2023-04-25T20:29:20.881Z,6.90
2023-04-25T20:31:52.101Z,7.00
2023-04-25T20:34:21.815Z,7.00
2023-04-25T20:36:52.464Z,7.00
2023-04-25T20:39:23.398Z,7.00
2023-04-25T20:41:53.177Z,7.00
2023-04-25T20:44:23.774Z,6.90
2023-04-25T20:46:53.306Z,6.90
2023-04-25T20:49:23.085Z,6.90
2023-04-25T20:51:52.926Z,6.80
2023-04-25T20:54:24.373Z,6.80
2023-04-25T20:56:54.170Z,6.80
2023-04-25T20:59:23.661Z,6.80
2023-04-25T21:01:54.736Z,6.80
2023-04-25T21:04:24.269Z,6.80
2023-04-25T21:06:54.284Z,6.80
2023-04-25T21:09:25.071Z,6.70
2023-04-25T21:11:55.024Z,6.70
2023-04-25T21:14:25.736Z,6.60
2023-04-25T21:16:55.058Z,6.60
2023-04-25T21:19:24.581Z,6.60
2023-04-25T21:21:54.510Z,6.60
2023-04-25T21:24:27.190Z,6.60
2023-04-25T21:26:56.921Z,6.70
2023-04-25T21:29:26.300Z,6.60
2023-04-25T21:31:56.927Z,6.50
2023-04-25T21:34:27.079Z,6.50
2023-04-25T21:36:56.725Z,6.40
2023-04-25T21:39:27.809Z,6.40
2023-04-25T21:41:57.994Z,6.40
2023-04-25T21:44:29.079Z,6.50
2023-04-25T21:46:58.738Z,6.50
2023-04-25T21:49:30.124Z,6.50
2023-04-25T21:52:00.145Z,6.50
2023-04-25T21:54:31.003Z,6.50
2023-04-25T21:57:00.807Z,6.50
2023-04-25T21:59:30.203Z,6.40
2023-04-25T22:01:59.954Z,6.40
2023-04-25T22:04:29.551Z,6.40
2023-04-25T22:06:59.625Z,6.40
2023-04-25T22:09:31.935Z,6.40
2023-04-25T22:12:03.882Z,6.40
2023-04-25T22:14:33.266Z,6.40
2023-04-25T22:17:03.215Z,6.40
2023-04-25T22:19:32.781Z,6.40
2023-04-25T22:22:03.140Z,6.40
2023-04-25T22:24:34.100Z,6.40
2023-04-25T22:27:04.114Z,6.40
2023-04-25T22:29:33.626Z,6.40
2023-04-25T22:32:03.501Z,6.40
2023-04-25T22:34:32.998Z,6.40
2023-04-25T22:37:02.729Z,6.40
2023-04-25T22:39:33.613Z,6.40
2023-04-25T22:42:03.747Z,6.40
2023-04-25T22:44:33.187Z,6.40
2023-04-25T22:47:03.172Z,6.50
2023-04-25T22:49:32.426Z,6.40
2023-04-25T22:52:04.420Z,6.40
2023-04-25T22:54:35.556Z,6.40
2023-04-25T22:57:08.808Z,6.40
2023-04-25T22:59:38.466Z,6.40
2023-04-25T23:02:09.625Z,6.40
2023-04-25T23:04:39.016Z,6.40
2023-04-25T23:07:08.726Z,6.40
2023-04-25T23:09:39.502Z,6.40
2023-04-25T23:12:09.382Z,6.40
2023-04-25T23:14:39.413Z,6.40
2023-04-25T23:17:09.501Z,6.30
2023-04-25T23:19:39.708Z,6.30
2023-04-25T23:22:09.727Z,6.30
2023-04-25T23:24:40.896Z,6.30
2023-04-25T23:27:10.841Z,6.30
2023-04-25T23:29:40.901Z,6.30
2023-04-25T23:32:10.965Z,6.30
2023-04-25T23:34:40.275Z,6.20
2023-04-25T23:37:10.515Z,6.20
2023-04-25T23:39:41.823Z,6.20
2023-04-25T23:42:11.921Z,6.20
2023-04-25T23:44:41.348Z,6.10
2023-04-25T23:47:13.373Z,6.00
2023-04-25T23:49:42.862Z,6.00
2023-04-25T23:52:13.421Z,6.00
2023-04-25T23:54:44.237Z,6.00
2023-04-25T23:57:14.146Z,6.00
2023-04-25T23:59:45.259Z,6.00
